Terminal Aerodrome Forecast
Issued by NWS Bismarck, ND

Home | Current Version | Previous Version | Text Only | Print | Product List | Glossary Off
Versions: 1 2 3 4 5 6 7 8 9 10 11 12 13 14 15 16 17 18 19 20 21

000
FTUS43 KBIS 240528
TAFBIS
TAF
KBIS 240528Z 2406/2506 14003KT P6SM VCTS BKN110CB
     FM240700 29003KT P6SM SCT200
     FM250300 07004KT P6SM BKN150=

USA.gov is the U.S. government's official web portal to all federal, state and local government web resources and services.